createdAt,value
2022-10-05T00:00:30.877Z,99.90
2022-10-05T00:02:59.343Z,99.90
2022-10-05T00:05:30.279Z,99.90
2022-10-05T00:08:05.661Z,99.90
2022-10-05T00:10:34.099Z,99.90
2022-10-05T00:13:03.746Z,99.90
2022-10-05T00:15:31.558Z,99.90
2022-10-05T00:17:59.862Z,99.90
2022-10-05T00:20:27.954Z,99.90
2022-10-05T00:22:58.595Z,99.90
2022-10-05T00:25:26.688Z,99.90
2022-10-05T00:27:57.422Z,99.90
2022-10-05T00:30:31.911Z,99.90
2022-10-05T00:33:00.021Z,99.90
2022-10-05T00:35:29.383Z,99.90
2022-10-05T00:37:57.722Z,99.90
2022-10-05T00:40:36.561Z,99.90
2022-10-05T00:43:20.358Z,99.90
2022-10-05T00:45:53.965Z,99.90
2022-10-05T00:48:30.042Z,99.90
2022-10-05T00:51:15.358Z,99.90
2022-10-05T00:53:49.753Z,99.90
2022-10-05T00:56:37.619Z,99.90
2022-10-05T00:59:17.174Z,99.90
2022-10-05T01:01:53.647Z,99.90
2022-10-05T01:04:28.460Z,99.90
2022-10-05T01:07:09.051Z,99.90
2022-10-05T01:09:43.478Z,99.90
2022-10-05T01:12:22.167Z,99.90
2022-10-05T01:14:57.036Z,99.90
2022-10-05T01:17:30.305Z,99.90
2022-10-05T01:20:27.516Z,99.90
2022-10-05T01:23:30.236Z,99.90
2022-10-05T01:26:13.617Z,99.90
2022-10-05T01:28:48.874Z,99.90
2022-10-05T01:31:23.828Z,99.90
2022-10-05T01:33:57.924Z,99.90
2022-10-05T01:36:32.035Z,99.90
2022-10-05T01:39:05.964Z,99.90
2022-10-05T01:41:42.135Z,99.90
2022-10-05T01:44:15.477Z,99.90
2022-10-05T01:46:48.266Z,99.90
2022-10-05T01:49:32.637Z,99.90
2022-10-05T01:52:12.071Z,99.90
2022-10-05T01:54:50.813Z,99.90
2022-10-05T01:57:29.362Z,99.90
2022-10-05T02:00:06.602Z,99.90
2022-10-05T02:02:39.663Z,99.90
2022-10-05T02:05:12.066Z,99.90
2022-10-05T02:07:45.521Z,99.90
2022-10-05T02:10:22.061Z,99.90
2022-10-05T02:12:54.021Z,99.90
2022-10-05T02:15:26.765Z,99.90
2022-10-05T02:18:00.501Z,99.90
2022-10-05T02:20:30.895Z,99.90
2022-10-05T02:23:04.642Z,99.90
2022-10-05T02:25:36.436Z,99.90
2022-10-05T02:28:09.050Z,99.90
2022-10-05T02:30:44.207Z,99.90
2022-10-05T02:33:18.530Z,99.90
2022-10-05T02:35:46.396Z,99.90
2022-10-05T02:38:22.507Z,99.90
2022-10-05T02:40:59.408Z,99.90
2022-10-05T02:43:38.980Z,99.90
2022-10-05T02:46:19.376Z,99.90
2022-10-05T02:49:00.238Z,99.90
2022-10-05T02:51:35.094Z,99.90
2022-10-05T02:54:16.418Z,99.90
2022-10-05T02:56:52.530Z,99.90
2022-10-05T02:59:27.316Z,99.90
2022-10-05T03:02:01.370Z,99.90
2022-10-05T03:04:38.668Z,99.90
2022-10-05T03:07:13.917Z,99.90
2022-10-05T03:09:46.484Z,99.90
2022-10-05T03:12:26.472Z,99.90
2022-10-05T03:15:04.461Z,99.90
2022-10-05T03:17:40.550Z,99.90
2022-10-05T03:20:21.796Z,99.90
2022-10-05T03:22:52.876Z,99.90
2022-10-05T03:25:51.581Z,99.90
2022-10-05T03:28:24.193Z,99.90
2022-10-05T03:31:00.524Z,99.90
2022-10-05T03:33:40.636Z,99.90
2022-10-05T03:36:18.380Z,99.90
2022-10-05T03:38:51.006Z,99.90
2022-10-05T03:41:25.745Z,99.90
2022-10-05T03:44:05.432Z,99.90
2022-10-05T03:46:45.641Z,99.90
2022-10-05T03:49:24.301Z,99.90
2022-10-05T03:52:00.036Z,99.90
2022-10-05T03:54:31.779Z,99.90
2022-10-05T03:57:07.672Z,99.90
2022-10-05T03:59:40.400Z,99.90
2022-10-05T04:02:16.655Z,99.90
2022-10-05T04:04:51.643Z,99.90
2022-10-05T04:07:33.121Z,99.90
2022-10-05T04:10:04.247Z,99.90
2022-10-05T04:12:36.997Z,99.90
2022-10-05T04:15:10.090Z,99.90
2022-10-05T04:17:43.285Z,99.90
2022-10-05T04:20:19.969Z,99.90
2022-10-05T04:23:02.206Z,99.90
2022-10-05T04:25:35.671Z,99.90
2022-10-05T04:28:11.155Z,99.90
2022-10-05T04:30:43.142Z,99.90
2022-10-05T04:33:13.683Z,99.90
2022-10-05T04:36:05.817Z,99.90
2022-10-05T04:38:44.484Z,99.90
2022-10-05T04:41:34.634Z,99.90
2022-10-05T04:44:18.004Z,99.90
2022-10-05T04:47:03.344Z,99.90
2022-10-05T04:49:49.762Z,99.90
2022-10-05T04:52:26.442Z,99.90
2022-10-05T04:55:13.066Z,99.90
2022-10-05T04:57:45.362Z,99.90
2022-10-05T05:00:26.856Z,99.90
2022-10-05T05:03:33.036Z,99.90
2022-10-05T05:06:17.477Z,99.90
2022-10-05T05:09:18.049Z,99.90
2022-10-05T05:11:57.877Z,99.90
2022-10-05T05:14:47.684Z,99.90
2022-10-05T05:17:29.774Z,99.90
2022-10-05T05:20:08.775Z,99.90
2022-10-05T05:22:46.271Z,99.90
2022-10-05T05:25:25.858Z,99.90
2022-10-05T05:27:56.010Z,99.90
2022-10-05T05:30:27.809Z,99.90
2022-10-05T05:33:17.903Z,99.90
2022-10-05T05:36:15.264Z,99.90
2022-10-05T05:38:50.687Z,99.90
2022-10-05T05:41:26.334Z,99.90
2022-10-05T05:44:05.842Z,99.90
2022-10-05T05:47:02.335Z,99.90
2022-10-05T05:49:33.167Z,99.90
2022-10-05T05:52:05.644Z,99.90
2022-10-05T05:54:39.887Z,99.90
2022-10-05T05:57:14.842Z,99.90
2022-10-05T05:59:57.628Z,99.90
2022-10-05T06:02:31.757Z,99.90
2022-10-05T06:05:04.960Z,99.90
2022-10-05T06:07:32.894Z,99.90
2022-10-05T06:10:07.160Z,99.90
2022-10-05T06:12:40.685Z,99.90
2022-10-05T06:15:19.014Z,99.90
2022-10-05T06:17:52.688Z,99.90
2022-10-05T06:20:26.613Z,99.90
2022-10-05T06:22:58.718Z,99.90
2022-10-05T06:25:34.835Z,99.90
2022-10-05T06:28:11.343Z,99.90
2022-10-05T06:30:48.700Z,99.90
2022-10-05T06:33:28.528Z,99.90
2022-10-05T06:36:10.748Z,99.90
2022-10-05T06:39:06.344Z,99.90
2022-10-05T06:41:44.496Z,99.90
2022-10-05T06:44:18.523Z,99.90
2022-10-05T06:46:56.610Z,99.90
2022-10-05T06:49:30.310Z,99.90
2022-10-05T06:52:04.649Z,99.90
2022-10-05T06:54:47.336Z,99.90
2022-10-05T06:57:33.064Z,99.90
2022-10-05T07:00:05.169Z,99.90
2022-10-05T07:02:41.489Z,99.90
2022-10-05T07:05:43.468Z,99.90
2022-10-05T07:08:14.556Z,99.90
2022-10-05T07:10:57.722Z,99.90
2022-10-05T07:13:43.550Z,99.90
2022-10-05T07:16:23.796Z,99.90
2022-10-05T07:19:05.160Z,99.90
2022-10-05T07:21:39.804Z,99.90
2022-10-05T07:24:24.686Z,99.90
2022-10-05T07:27:00.803Z,99.90
2022-10-05T07:29:35.318Z,99.90
2022-10-05T07:32:13.812Z,99.90
2022-10-05T07:34:54.705Z,99.90
2022-10-05T07:37:49.021Z,99.90
2022-10-05T07:40:22.032Z,99.90
2022-10-05T07:43:03.058Z,99.90
2022-10-05T07:45:37.962Z,99.90
2022-10-05T07:48:14.564Z,99.90
2022-10-05T07:50:53.504Z,99.90
2022-10-05T07:53:26.719Z,99.90
2022-10-05T07:55:56.789Z,99.90
2022-10-05T07:58:29.424Z,99.90
2022-10-05T08:01:11.137Z,99.90
2022-10-05T08:03:49.370Z,99.90
2022-10-05T08:06:34.677Z,99.90
2022-10-05T08:09:09.848Z,99.90
2022-10-05T08:11:46.607Z,99.90
2022-10-05T08:14:20.599Z,99.90
2022-10-05T08:16:53.045Z,99.90
2022-10-05T08:19:30.153Z,99.90
2022-10-05T08:22:04.317Z,99.90
2022-10-05T08:24:41.831Z,99.90
2022-10-05T08:27:15.960Z,99.90
2022-10-05T08:29:50.768Z,99.90
2022-10-05T08:32:24.825Z,99.90
2022-10-05T08:35:02.327Z,99.90
2022-10-05T08:37:35.289Z,99.90
2022-10-05T08:40:33.163Z,98.60
2022-10-05T08:43:17.469Z,96.90
2022-10-05T08:46:23.144Z,94.70
2022-10-05T08:49:21.925Z,93.30
2022-10-05T08:52:19.366Z,92.70
2022-10-05T08:55:14.208Z,90.90
2022-10-05T08:57:59.756Z,89.70
2022-10-05T09:00:37.425Z,86.60
2022-10-05T09:03:25.680Z,83.80
2022-10-05T09:06:22.783Z,80.90
2022-10-05T09:09:10.657Z,78.50
2022-10-05T09:11:41.046Z,75.70
2022-10-05T09:14:33.662Z,72.80
2022-10-05T09:17:19.531Z,70.90
2022-10-05T09:20:11.054Z,67.60
2022-10-05T09:23:06.417Z,64.90
2022-10-05T09:25:58.024Z,62.50
2022-10-05T09:28:32.391Z,60.10
2022-10-05T09:31:20.210Z,58.70
2022-10-05T09:34:19.611Z,57.20
2022-10-05T09:37:29.412Z,56.10
2022-10-05T09:40:35.973Z,55.20
2022-10-05T09:43:20.978Z,53.90
2022-10-05T09:46:23.476Z,52.70
2022-10-05T09:49:29.428Z,51.80
2022-10-05T09:52:16.465Z,51.30
2022-10-05T09:55:21.839Z,51.00
2022-10-05T09:58:28.323Z,49.50
2022-10-05T10:01:36.419Z,49.30
2022-10-05T10:04:30.378Z,48.60
2022-10-05T10:07:25.331Z,48.20
2022-10-05T10:10:13.685Z,47.60
2022-10-05T10:13:01.765Z,47.20
2022-10-05T10:15:57.648Z,46.60
2022-10-05T10:18:57.479Z,46.60
2022-10-05T10:22:02.925Z,46.20
2022-10-05T10:24:47.138Z,45.50
2022-10-05T10:27:31.481Z,45.20
2022-10-05T10:30:18.749Z,45.00
2022-10-05T10:33:15.572Z,45.00
2022-10-05T10:35:51.030Z,44.40
2022-10-05T10:38:41.209Z,44.00
2022-10-05T10:41:45.295Z,43.50
2022-10-05T10:44:47.970Z,43.30
2022-10-05T10:47:44.791Z,43.00
2022-10-05T10:51:00.734Z,42.60
2022-10-05T10:54:07.215Z,43.10
2022-10-05T10:56:51.624Z,42.50
2022-10-05T10:59:56.468Z,42.70
2022-10-05T11:02:45.240Z,42.00
2022-10-05T11:05:29.587Z,42.00
2022-10-05T11:08:46.338Z,42.20
2022-10-05T11:11:35.362Z,42.50
2022-10-05T11:14:40.547Z,42.60
2022-10-05T11:17:29.355Z,42.60
2022-10-05T11:20:20.647Z,42.90
2022-10-05T11:22:58.770Z,42.20
2022-10-05T11:25:54.350Z,41.50
2022-10-05T11:28:42.066Z,41.30
2022-10-05T11:31:44.578Z,41.20
2022-10-05T11:34:33.438Z,40.90
2022-10-05T11:37:26.888Z,40.50
2022-10-05T11:40:16.660Z,40.10
2022-10-05T11:43:23.151Z,39.80
2022-10-05T11:46:06.032Z,39.40
2022-10-05T11:49:01.837Z,39.80
2022-10-05T11:51:38.237Z,38.80
2022-10-05T11:54:23.359Z,38.90
2022-10-05T11:56:57.948Z,38.70
2022-10-05T11:59:35.505Z,38.80
2022-10-05T12:02:32.789Z,39.00
2022-10-05T12:05:10.835Z,39.30
2022-10-05T12:07:43.147Z,39.40
2022-10-05T12:10:24.401Z,39.50
2022-10-05T12:13:05.609Z,39.80
2022-10-05T12:15:43.575Z,39.30
2022-10-05T12:18:20.508Z,39.00
2022-10-05T12:20:53.282Z,39.00
2022-10-05T12:23:26.284Z,38.90
2022-10-05T12:26:01.153Z,38.80
2022-10-05T12:28:36.049Z,39.00
2022-10-05T12:31:25.304Z,39.30
2022-10-05T12:34:02.523Z,39.20
2022-10-05T12:37:02.507Z,39.10
2022-10-05T12:39:30.650Z,39.40
2022-10-05T12:42:09.231Z,39.40
2022-10-05T12:45:03.731Z,40.00
2022-10-05T12:47:40.316Z,40.20
2022-10-05T12:50:20.817Z,40.80
2022-10-05T12:53:04.594Z,41.00
2022-10-05T12:55:42.433Z,42.20
2022-10-05T12:58:27.361Z,41.20
2022-10-05T13:01:01.318Z,41.40
2022-10-05T13:03:35.303Z,42.10
2022-10-05T13:06:16.246Z,42.40
2022-10-05T13:08:52.429Z,42.80
2022-10-05T13:11:29.303Z,43.10
2022-10-05T13:14:07.399Z,43.30
2022-10-05T13:16:41.305Z,43.10
2022-10-05T13:19:20.570Z,42.30
2022-10-05T13:22:14.208Z,42.50
2022-10-05T13:24:52.887Z,42.70
2022-10-05T13:27:25.279Z,43.20
2022-10-05T13:29:57.146Z,43.80
2022-10-05T13:32:28.172Z,44.60
2022-10-05T13:35:07.884Z,45.60
2022-10-05T13:37:51.347Z,45.50
2022-10-05T13:40:25.716Z,46.40
2022-10-05T13:42:59.880Z,46.90
2022-10-05T13:45:33.450Z,47.60
2022-10-05T13:48:13.994Z,48.80
2022-10-05T13:50:49.255Z,49.50
2022-10-05T13:53:24.262Z,50.30
2022-10-05T13:55:59.896Z,51.60
2022-10-05T13:58:34.703Z,50.80
2022-10-05T14:01:07.146Z,52.10
2022-10-05T14:03:36.958Z,53.00
2022-10-05T14:06:27.566Z,53.60
2022-10-05T14:08:58.193Z,53.80
2022-10-05T14:11:31.543Z,53.90
2022-10-05T14:14:13.407Z,54.30
2022-10-05T14:16:50.732Z,55.10
2022-10-05T14:19:21.887Z,55.10
2022-10-05T14:21:55.586Z,56.30
2022-10-05T14:24:45.917Z,56.80
2022-10-05T14:27:22.096Z,57.60
2022-10-05T14:29:57.231Z,57.80
2022-10-05T14:32:27.038Z,58.30
2022-10-05T14:35:06.087Z,58.10
2022-10-05T14:37:45.118Z,57.50
2022-10-05T14:40:30.187Z,58.70
2022-10-05T14:43:00.208Z,56.90
2022-10-05T14:45:30.272Z,55.20
2022-10-05T14:48:11.384Z,54.30
2022-10-05T14:50:55.024Z,54.00
2022-10-05T14:53:24.912Z,54.10
2022-10-05T14:56:17.455Z,53.20
2022-10-05T14:59:07.535Z,53.10
2022-10-05T15:01:39.222Z,53.60
2022-10-05T15:04:22.929Z,54.00
2022-10-05T15:07:05.236Z,53.90
2022-10-05T15:09:45.239Z,53.60
2022-10-05T15:12:19.879Z,54.30
2022-10-05T15:14:48.433Z,55.10
2022-10-05T15:17:21.187Z,56.60
2022-10-05T15:20:01.671Z,56.90
2022-10-05T15:22:32.874Z,57.70
2022-10-05T15:25:10.850Z,59.60
2022-10-05T15:27:54.734Z,59.60
2022-10-05T15:30:24.454Z,60.70
2022-10-05T15:33:08.867Z,59.30
2022-10-05T15:36:04.594Z,61.00
2022-10-05T15:38:39.985Z,64.80
2022-10-05T15:41:14.760Z,64.90
2022-10-05T15:43:50.930Z,65.10
2022-10-05T15:46:23.366Z,67.00
2022-10-05T15:49:01.658Z,68.40
2022-10-05T15:51:42.311Z,68.50
2022-10-05T15:54:35.514Z,68.70
2022-10-05T15:57:09.010Z,68.60
2022-10-05T15:59:45.858Z,68.80
2022-10-05T16:02:19.774Z,68.60
2022-10-05T16:04:58.992Z,69.90
2022-10-05T16:07:55.534Z,70.00
2022-10-05T16:10:25.029Z,69.60
2022-10-05T16:13:05.832Z,70.10
2022-10-05T16:15:42.577Z,70.70
2022-10-05T16:18:46.879Z,71.10
2022-10-05T16:21:25.845Z,72.00
2022-10-05T16:24:10.500Z,72.30
2022-10-05T16:26:51.340Z,73.40
2022-10-05T16:29:28.345Z,73.70
2022-10-05T16:32:04.331Z,74.00
2022-10-05T16:34:44.384Z,75.10
2022-10-05T16:37:18.292Z,73.30
2022-10-05T16:39:53.582Z,74.00
2022-10-05T16:42:48.021Z,74.10
2022-10-05T16:45:28.456Z,75.30
2022-10-05T16:48:07.406Z,74.30
2022-10-05T16:50:44.543Z,74.70
2022-10-05T16:53:18.806Z,72.60
2022-10-05T16:55:50.557Z,70.80
2022-10-05T16:58:23.593Z,68.90
2022-10-05T17:01:11.785Z,68.30
2022-10-05T17:04:01.982Z,68.80
2022-10-05T17:06:56.596Z,68.50
2022-10-05T17:09:44.613Z,68.70
2022-10-05T17:12:29.343Z,69.30
2022-10-05T17:15:15.618Z,69.60
2022-10-05T17:18:27.158Z,69.00
2022-10-05T17:21:05.447Z,71.60
2022-10-05T17:23:43.543Z,72.40
2022-10-05T17:26:39.903Z,73.30
2022-10-05T17:29:16.246Z,75.30
2022-10-05T17:32:10.071Z,76.10
2022-10-05T17:34:39.667Z,76.60
2022-10-05T17:37:35.112Z,77.10
2022-10-05T17:40:33.043Z,77.70
2022-10-05T17:43:04.561Z,78.50
2022-10-05T17:45:53.226Z,78.90
2022-10-05T17:48:44.556Z,79.70
2022-10-05T17:51:57.228Z,79.70
2022-10-05T17:54:48.135Z,80.20
2022-10-05T17:57:22.557Z,81.00
2022-10-05T18:00:00.502Z,81.50
2022-10-05T18:02:42.757Z,82.10
2022-10-05T18:05:25.617Z,82.00
2022-10-05T18:08:32.612Z,82.70
2022-10-05T18:11:36.597Z,83.00
2022-10-05T18:14:19.518Z,84.30
2022-10-05T18:17:01.708Z,85.20
2022-10-05T18:19:32.425Z,85.50
2022-10-05T18:22:03.274Z,86.40
2022-10-05T18:24:55.706Z,87.10
2022-10-05T18:27:39.832Z,88.10
2022-10-05T18:30:18.907Z,88.60
2022-10-05T18:33:02.836Z,89.30
2022-10-05T18:35:42.831Z,90.00
2022-10-05T18:38:27.460Z,90.30
2022-10-05T18:40:59.111Z,90.70
2022-10-05T18:43:36.598Z,91.10
2022-10-05T18:46:19.482Z,91.60
2022-10-05T18:48:55.311Z,92.20
2022-10-05T18:51:29.074Z,92.10
2022-10-05T18:54:08.900Z,92.60
2022-10-05T18:56:42.091Z,93.00
2022-10-05T18:59:26.672Z,93.30
2022-10-05T19:02:03.413Z,93.70
2022-10-05T19:04:41.686Z,94.30
2022-10-05T19:07:19.487Z,94.80
2022-10-05T19:10:00.765Z,95.30
2022-10-05T19:12:41.572Z,95.80
2022-10-05T19:15:19.406Z,96.50
2022-10-05T19:18:12.283Z,96.70
2022-10-05T19:20:45.382Z,97.10
2022-10-05T19:23:26.959Z,97.40
2022-10-05T19:25:59.692Z,97.70
2022-10-05T19:28:32.270Z,98.10
2022-10-05T19:31:30.006Z,98.40
2022-10-05T19:34:16.399Z,98.70
2022-10-05T19:36:59.167Z,99.10
2022-10-05T19:39:38.110Z,99.50
2022-10-05T19:42:27.776Z,99.90
2022-10-05T19:45:10.264Z,99.90
2022-10-05T19:47:47.300Z,99.90
2022-10-05T19:50:28.165Z,99.90
2022-10-05T19:53:07.291Z,99.90
2022-10-05T19:55:41.580Z,99.90
2022-10-05T19:58:21.383Z,99.90
2022-10-05T20:00:59.898Z,99.90
2022-10-05T20:03:31.196Z,99.90
2022-10-05T20:06:00.518Z,99.90
2022-10-05T20:08:37.289Z,99.90
2022-10-05T20:11:11.576Z,99.90
2022-10-05T20:13:41.742Z,99.90
2022-10-05T20:16:37.466Z,99.90
2022-10-05T20:19:43.942Z,99.90
2022-10-05T20:22:29.537Z,99.90
2022-10-05T20:25:00.060Z,99.90
2022-10-05T20:27:55.387Z,99.90
2022-10-05T20:30:24.952Z,99.90
2022-10-05T20:32:57.534Z,99.90
2022-10-05T20:35:29.644Z,99.90
2022-10-05T20:37:59.402Z,99.90
2022-10-05T20:40:27.480Z,99.90
2022-10-05T20:42:55.353Z,99.90
2022-10-05T20:45:23.249Z,99.90
2022-10-05T20:47:51.137Z,99.90
2022-10-05T20:50:20.492Z,99.90
2022-10-05T20:52:49.682Z,99.90
2022-10-05T20:55:17.553Z,99.90
2022-10-05T20:57:46.112Z,99.90
2022-10-05T21:00:14.795Z,99.90
2022-10-05T21:02:42.610Z,99.90
2022-10-05T21:05:10.790Z,99.90
2022-10-05T21:07:38.807Z,99.90
2022-10-05T21:10:08.883Z,99.90
2022-10-05T21:12:36.798Z,99.90
2022-10-05T21:15:05.781Z,99.90
2022-10-05T21:17:35.158Z,99.90
2022-10-05T21:20:03.241Z,99.90
2022-10-05T21:22:31.061Z,99.90
2022-10-05T21:24:58.872Z,99.90
2022-10-05T21:27:28.179Z,99.90
2022-10-05T21:29:56.132Z,99.90
2022-10-05T21:32:23.998Z,99.90
2022-10-05T21:34:51.851Z,99.90
2022-10-05T21:37:19.932Z,99.90
2022-10-05T21:39:47.928Z,99.90
2022-10-05T21:42:15.855Z,99.90
2022-10-05T21:44:45.041Z,99.90
2022-10-05T21:47:12.950Z,99.90
2022-10-05T21:49:42.125Z,99.90
2022-10-05T21:52:10.033Z,99.90
2022-10-05T21:54:37.898Z,99.90
2022-10-05T21:57:06.015Z,99.90
2022-10-05T21:59:35.702Z,99.90
2022-10-05T22:02:05.119Z,99.90
2022-10-05T22:04:33.000Z,99.90
2022-10-05T22:07:01.129Z,99.90
2022-10-05T22:09:28.972Z,99.90
2022-10-05T22:11:57.325Z,99.90
2022-10-05T22:14:25.259Z,99.90
2022-10-05T22:16:53.448Z,99.90
2022-10-05T22:19:22.716Z,99.90
2022-10-05T22:21:50.552Z,99.90
2022-10-05T22:24:18.375Z,99.90
2022-10-05T22:26:51.328Z,99.90
2022-10-05T22:29:19.926Z,99.90
2022-10-05T22:31:49.171Z,99.90
2022-10-05T22:34:17.810Z,99.90
2022-10-05T22:36:47.369Z,99.90
2022-10-05T22:39:15.395Z,99.90
2022-10-05T22:41:43.675Z,99.90
2022-10-05T22:44:11.613Z,99.90
2022-10-05T22:46:39.710Z,99.90
2022-10-05T22:49:07.574Z,99.90
2022-10-05T22:51:35.510Z,99.90
2022-10-05T22:54:04.859Z,99.90
2022-10-05T22:56:32.740Z,99.90
2022-10-05T22:59:00.561Z,99.90
2022-10-05T23:01:28.444Z,99.90
2022-10-05T23:03:57.241Z,99.90
2022-10-05T23:06:26.388Z,99.90
2022-10-05T23:08:55.093Z,99.90
2022-10-05T23:11:26.629Z,99.90
2022-10-05T23:13:56.774Z,99.90
2022-10-05T23:16:26.752Z,99.90
2022-10-05T23:18:55.935Z,99.90
2022-10-05T23:21:25.112Z,99.90
2022-10-05T23:23:52.933Z,99.90
2022-10-05T23:26:23.325Z,99.90
2022-10-05T23:28:52.835Z,99.90
2022-10-05T23:31:23.394Z,99.90
2022-10-05T23:33:52.052Z,99.90
2022-10-05T23:36:21.692Z,99.90
2022-10-05T23:38:49.528Z,99.90
2022-10-05T23:41:17.952Z,99.90
2022-10-05T23:43:45.809Z,99.90
2022-10-05T23:46:15.387Z,99.90
2022-10-05T23:48:43.224Z,99.90
2022-10-05T23:51:12.924Z,99.90
2022-10-05T23:53:40.787Z,99.90
2022-10-05T23:56:09.051Z,99.90
2022-10-05T23:58:36.977Z,99.90
